Time;durP1;ratioP1;P1;durP2;ratioP2;P2;SDS_P1;SDS_P2;PMS_P1;PMS_P2;Temp;Humidity;BMP_temperature;BMP_pressure;BME280_temperature;BME280_humidity;BME280_pressure;Samples;Min_cycle;Max_cycle;Signal;HPM_P1;HPM_P2
2022/11/20 00:01:10;;;;;;;21.23;11.68;;;-1.60;99.90;;;;;;5090778;28;20035;-62
2022/11/20 00:03:36;;;;;;;18.05;10.48;;;-1.60;99.90;;;;;;5109621;28;20036;-63
2022/11/20 00:06:04;;;;;;;18.65;11.57;;;-1.60;99.90;;;;;;5110402;28;20500;-63
2022/11/20 00:08:30;;;;;;;18.70;11.77;;;-1.60;99.90;;;;;;5095056;28;20431;-63
2022/11/20 00:10:55;;;;;;;18.65;10.85;;;-1.50;99.90;;;;;;5089906;28;20027;-63
2022/11/20 00:13:21;;;;;;;18.27;11.07;;;-1.40;99.90;;;;;;5103673;28;20040;-63
2022/11/20 00:15:46;;;;;;;22.98;13.95;;;-1.50;99.90;;;;;;5096277;28;20035;-63
2022/11/20 00:18:12;;;;;;;23.83;13.73;;;-1.50;99.90;;;;;;5105529;28;20044;-63
2022/11/20 00:20:38;;;;;;;30.83;14.95;;;-1.40;99.90;;;;;;5085646;28;20540;-63
2022/11/20 00:23:03;;;;;;;26.63;15.50;;;-1.50;99.90;;;;;;5114307;28;20035;-63
2022/11/20 00:25:29;;;;;;;24.83;14.48;;;-1.40;99.90;;;;;;5113731;27;20085;-63
2022/11/20 00:27:54;;;;;;;31.05;16.48;;;-1.40;99.90;;;;;;5084057;28;20035;-62
2022/11/20 00:30:20;;;;;;;25.00;15.18;;;-1.30;99.90;;;;;;5105022;27;20386;-63
2022/11/20 00:32:45;;;;;;;29.00;16.33;;;-1.30;99.90;;;;;;5110890;27;20516;-63
2022/11/20 00:35:11;;;;;;;26.17;16.52;;;-1.20;99.90;;;;;;5113278;28;20040;-63
2022/11/20 00:37:37;;;;;;;26.23;15.85;;;-1.20;99.90;;;;;;5096038;28;20047;-63
2022/11/20 00:40:03;;;;;;;23.20;14.68;;;-1.20;99.90;;;;;;5113848;28;20032;-63
2022/11/20 00:42:28;;;;;;;27.17;15.40;;;-1.10;99.90;;;;;;5106503;28;20090;-63
2022/11/20 00:44:54;;;;;;;26.20;15.13;;;-1.10;99.90;;;;;;5095263;28;20485;-63
2022/11/20 00:47:19;;;;;;;28.50;15.40;;;-1.10;99.90;;;;;;5107286;27;20070;-63
2022/11/20 00:49:45;;;;;;;23.73;14.30;;;-1.00;99.90;;;;;;5105787;27;20081;-63
2022/11/20 00:52:10;;;;;;;26.73;15.88;;;-1.00;99.90;;;;;;5112538;28;20054;-63
2022/11/20 00:54:36;;;;;;;24.55;14.35;;;-1.00;99.90;;;;;;5115466;28;20031;-63
2022/11/20 00:57:01;;;;;;;27.38;15.32;;;-0.90;99.90;;;;;;5115370;28;20165;-63
2022/11/20 00:59:27;;;;;;;26.35;14.48;;;-0.90;99.90;;;;;;5114662;28;20397;-63
2022/11/20 01:01:53;;;;;;;25.73;14.70;;;-0.90;99.90;;;;;;5115570;27;20032;-63
2022/11/20 01:04:18;;;;;;;25.27;14.77;;;-0.90;99.90;;;;;;5113455;28;20114;-63
2022/11/20 01:06:44;;;;;;;25.90;15.00;;;-0.90;99.90;;;;;;5109095;28;20058;-63
2022/11/20 01:09:13;;;;;;;27.58;14.80;;;-0.90;99.90;;;;;;5105876;28;20051;-63
2022/11/20 01:11:42;;;;;;;26.25;14.10;;;-0.90;99.90;;;;;;5113262;28;20040;-63
2022/11/20 01:14:12;;;;;;;22.40;13.55;;;-0.90;99.90;;;;;;5106444;28;20096;-63
2022/11/20 01:16:40;;;;;;;24.10;14.63;;;-0.80;99.90;;;;;;5122419;27;20092;-63
2022/11/20 01:19:10;;;;;;;23.00;13.27;;;-0.80;99.90;;;;;;5113527;28;20063;-63
2022/11/20 01:21:38;;;;;;;21.63;13.73;;;-0.80;99.90;;;;;;5112707;28;20563;-63
2022/11/20 01:24:07;;;;;;;23.83;12.85;;;-0.70;99.90;;;;;;5109371;27;20036;-63
2022/11/20 01:26:35;;;;;;;21.52;12.00;;;-0.70;99.90;;;;;;5093873;28;20086;-63
2022/11/20 01:29:02;;;;;;;20.83;11.57;;;-0.70;99.90;;;;;;5093704;28;20032;-63
2022/11/20 01:31:34;;;;;;;19.65;10.95;;;-0.70;99.90;;;;;;5092115;28;20092;-63
2022/11/20 01:34:05;;;;;;;20.55;11.90;;;-0.80;99.90;;;;;;5107450;28;20392;-63
2022/11/20 01:36:32;;;;;;;21.67;12.05;;;-0.80;99.90;;;;;;5092326;28;20040;-63
2022/11/20 01:39:03;;;;;;;20.10;11.25;;;-0.70;99.90;;;;;;5112670;28;20046;-63
2022/11/20 01:44:17;;;;;;;18.83;10.93;;;-0.80;99.90;;;;;;5109614;28;20046;-63
2022/11/20 01:46:58;;;;;;;22.35;12.77;;;-0.70;99.90;;;;;;5114511;28;20035;-63
2022/11/20 01:49:40;;;;;;;19.00;11.30;;;-0.80;99.90;;;;;;5113163;28;20047;-63
2022/11/20 01:52:32;;;;;;;20.25;12.07;;;-0.70;99.90;;;;;;5111601;28;20122;-63
2022/11/20 01:55:10;;;;;;;17.80;11.23;;;-0.60;99.90;;;;;;5112760;27;20032;-63
2022/11/20 01:57:37;;;;;;;21.95;11.90;;;-0.60;99.90;;;;;;5116258;27;20035;-63
2022/11/20 02:00:07;;;;;;;20.33;12.65;;;-0.70;99.90;;;;;;5107782;28;20051;-63
2022/11/20 02:02:34;;;;;;;20.08;11.70;;;-0.70;99.90;;;;;;5102636;28;20119;-63
2022/11/20 02:05:11;;;;;;;20.27;12.35;;;-0.70;99.90;;;;;;5101308;28;20027;-63
2022/11/20 02:07:37;;;;;;;23.45;12.98;;;-0.70;99.90;;;;;;5093877;28;20066;-63
2022/11/20 02:10:03;;;;;;;21.10;12.80;;;-0.60;99.90;;;;;;5103508;27;20488;-62
2022/11/20 02:15:13;;;;;;;22.63;12.55;;;-0.60;99.90;;;;;;5109081;28;20462;-63
2022/11/20 02:17:38;;;;;;;21.05;11.77;;;-0.60;99.90;;;;;;5108329;28;20039;-63
2022/11/20 02:20:04;;;;;;;22.67;12.27;;;-0.50;99.90;;;;;;5107800;28;20082;-63
2022/11/20 02:22:48;;;;;;;20.70;11.90;;;-0.50;99.90;;;;;;5110211;28;20081;-63
2022/11/20 02:25:14;;;;;;;20.50;11.48;;;-0.50;99.90;;;;;;5102154;28;20028;-63
2022/11/20 02:27:40;;;;;;;22.17;12.48;;;-0.50;99.90;;;;;;5086980;28;20122;-63
2022/11/20 02:30:07;;;;;;;21.15;11.68;;;-0.50;99.90;;;;;;5100808;28;20556;-63
2022/11/20 02:32:35;;;;;;;19.13;10.95;;;-0.50;99.90;;;;;;5089922;28;20043;-63
2022/11/20 02:35:20;;;;;;;23.30;12.80;;;-0.40;99.90;;;;;;5102120;28;20400;-63
2022/11/20 02:37:52;;;;;;;22.08;12.65;;;-0.40;99.90;;;;;;5110252;28;20118;-63
2022/11/20 02:40:18;;;;;;;19.65;12.55;;;-0.40;99.90;;;;;;5112984;27;20054;-63
2022/11/20 02:42:44;;;;;;;21.35;12.90;;;-0.40;99.90;;;;;;5107307;28;20123;-63
2022/11/20 02:45:10;;;;;;;22.48;12.85;;;-0.40;99.90;;;;;;5088447;28;20397;-63
2022/11/20 02:47:36;;;;;;;25.67;12.13;;;-0.40;99.90;;;;;;5102834;28;20036;-63
2022/11/20 02:50:02;;;;;;;22.02;12.23;;;-0.40;99.90;;;;;;5103850;28;20118;-63
2022/11/20 02:52:27;;;;;;;21.90;12.60;;;-0.40;99.90;;;;;;5110324;28;20040;-63
2022/11/20 02:54:53;;;;;;;20.48;12.60;;;-0.30;99.90;;;;;;5089433;28;20485;-63
2022/11/20 02:57:18;;;;;;;22.85;12.98;;;-0.40;99.90;;;;;;5107882;28;20045;-63
2022/11/20 02:59:44;;;;;;;20.83;12.98;;;-0.40;99.90;;;;;;5105363;28;20088;-63
2022/11/20 03:02:10;;;;;;;22.02;12.77;;;-0.40;99.90;;;;;;5104151;28;20068;-63
2022/11/20 03:04:35;;;;;;;22.08;13.35;;;-0.30;99.90;;;;;;5110443;28;20043;-63
2022/11/20 03:07:01;;;;;;;21.77;12.20;;;-0.30;99.90;;;;;;5091843;28;20390;-63
2022/11/20 03:09:26;;;;;;;25.25;13.80;;;-0.30;99.90;;;;;;5105912;27;20140;-63
2022/11/20 03:11:52;;;;;;;21.42;12.32;;;-0.30;99.90;;;;;;5105579;28;20031;-63
2022/11/20 03:14:17;;;;;;;22.83;13.60;;;-0.30;99.90;;;;;;5090329;28;20067;-63
2022/11/20 03:16:43;;;;;;;22.73;12.98;;;-0.30;99.90;;;;;;5109887;28;20048;-64
2022/11/20 03:19:08;;;;;;;23.30;12.65;;;-0.20;99.90;;;;;;5102061;28;20043;-63
2022/11/20 03:21:34;;;;;;;22.10;12.48;;;-0.30;99.90;;;;;;5111558;28;20040;-64
2022/11/20 03:24:01;;;;;;;22.48;11.55;;;-0.20;99.90;;;;;;5107574;27;20500;-64
2022/11/20 03:26:27;;;;;;;17.40;10.10;;;-0.30;99.90;;;;;;5097590;28;20489;-63
2022/11/20 03:28:58;;;;;;;22.70;12.52;;;-0.30;99.90;;;;;;5106614;28;20107;-64
2022/11/20 03:31:29;;;;;;;21.33;12.73;;;-0.30;99.90;;;;;;5102031;28;20039;-63
2022/11/20 03:33:59;;;;;;;24.88;12.98;;;-0.30;99.90;;;;;;5104448;28;20055;-64
2022/11/20 03:36:25;;;;;;;25.63;13.52;;;-0.30;99.90;;;;;;5106122;28;20119;-63
2022/11/20 03:38:52;;;;;;;23.33;13.52;;;-0.20;99.90;;;;;;5110908;28;20036;-64
2022/11/20 03:41:20;;;;;;;23.02;13.25;;;-0.20;99.90;;;;;;5110045;28;20032;-64
2022/11/20 03:43:50;;;;;;;23.90;13.02;;;-0.20;99.90;;;;;;5108715;28;20443;-64
2022/11/20 03:46:16;;;;;;;19.20;12.65;;;-0.20;99.90;;;;;;5106641;28;20028;-64
2022/11/20 03:48:41;;;;;;;21.83;12.85;;;-0.20;99.90;;;;;;5103096;28;20119;-64
2022/11/20 03:51:14;;;;;;;21.10;12.25;;;-0.20;99.90;;;;;;5109680;27;20035;-64
2022/11/20 03:53:41;;;;;;;22.15;12.07;;;-0.20;99.90;;;;;;5094087;28;20390;-64
2022/11/20 03:56:08;;;;;;;22.60;13.15;;;-0.20;99.90;;;;;;5108784;28;20042;-64
2022/11/20 03:58:37;;;;;;;23.48;11.93;;;-0.20;99.90;;;;;;5105965;28;20079;-64
2022/11/20 04:01:11;;;;;;;21.85;12.75;;;-0.20;99.90;;;;;;5109503;28;20032;-63
2022/11/20 04:03:37;;;;;;;22.92;12.65;;;-0.10;99.90;;;;;;5115507;22;20015;-70
2022/11/20 04:06:07;;;;;;;23.23;12.68;;;-0.10;99.90;;;;;;5087789;28;20116;-70
2022/11/20 04:08:33;;;;;;;21.85;12.45;;;-0.10;99.90;;;;;;5090014;28;20032;-70
2022/11/20 04:11:39;;;;;;;23.38;13.07;;;-0.10;99.90;;;;;;5092093;28;20374;-70
2022/11/20 04:14:06;;;;;;;21.70;12.63;;;-0.20;99.90;;;;;;5077681;28;20052;-70
2022/11/20 04:16:34;;;;;;;22.25;13.45;;;-0.20;99.90;;;;;;5082673;28;20505;-70
2022/11/20 04:19:03;;;;;;;21.42;12.07;;;-0.10;99.90;;;;;;5083554;28;20085;-70
2022/11/20 04:21:29;;;;;;;23.02;13.13;;;-0.20;99.90;;;;;;5080637;28;20036;-70
2022/11/20 04:23:55;;;;;;;23.33;12.90;;;-0.20;99.90;;;;;;5085732;28;20078;-70
2022/11/20 04:26:23;;;;;;;22.58;12.93;;;-0.10;99.90;;;;;;5074189;28;20124;-70
2022/11/20 04:28:49;;;;;;;21.85;12.07;;;-0.10;99.90;;;;;;5071312;28;20128;-70
2022/11/20 04:31:17;;;;;;;21.25;11.90;;;-0.10;99.90;;;;;;5078791;28;20136;-70
2022/11/20 04:33:43;;;;;;;21.00;12.73;;;-0.10;99.90;;;;;;5078471;28;20040;-70
2022/11/20 04:36:15;;;;;;;20.60;12.25;;;-0.10;99.90;;;;;;5084065;28;20040;-70
2022/11/20 04:38:41;;;;;;;21.48;12.38;;;-0.20;99.90;;;;;;5070978;28;20044;-69
2022/11/20 04:41:12;;;;;;;19.98;12.23;;;-0.20;99.90;;;;;;5080849;28;20397;-70
2022/11/20 04:43:37;;;;;;;21.90;11.95;;;-0.10;99.90;;;;;;5081344;28;20109;-70
2022/11/20 04:46:03;;;;;;;21.92;12.68;;;-0.10;99.90;;;;;;5084971;28;20490;-70
2022/11/20 04:48:29;;;;;;;22.25;12.82;;;-0.10;99.90;;;;;;5071050;28;20413;-70
2022/11/20 04:50:55;;;;;;;22.88;12.30;;;-0.10;99.90;;;;;;5079357;28;20047;-70
2022/11/20 04:53:22;;;;;;;21.15;12.32;;;-0.10;99.90;;;;;;5089091;28;20127;-70
2022/11/20 04:55:47;;;;;;;23.45;12.65;;;-0.10;99.90;;;;;;5088419;28;20048;-70
2022/11/20 04:58:13;;;;;;;22.30;12.68;;;0.00;99.90;;;;;;5090663;28;20047;-70
2022/11/20 05:00:39;;;;;;;23.45;12.93;;;0.00;99.90;;;;;;5082117;28;20032;-70
2022/11/20 05:03:04;;;;;;;20.60;12.45;;;-0.10;99.90;;;;;;5079501;28;20040;-70
2022/11/20 05:05:30;;;;;;;24.17;12.68;;;-0.10;99.90;;;;;;5076834;28;20033;-70
2022/11/20 05:07:57;;;;;;;22.45;13.05;;;0.00;99.90;;;;;;5086392;28;20447;-70
2022/11/20 05:10:24;;;;;;;22.95;12.52;;;0.00;99.90;;;;;;5083412;28;20222;-70
2022/11/20 05:12:49;;;;;;;25.92;14.05;;;0.00;99.90;;;;;;5094077;28;20028;-70
2022/11/20 05:15:15;;;;;;;24.17;13.60;;;-0.10;99.90;;;;;;5081906;28;20044;-70
2022/11/20 05:17:40;;;;;;;23.98;13.27;;;-0.10;99.90;;;;;;5092657;28;20111;-70
2022/11/20 05:20:07;;;;;;;22.08;12.52;;;-0.10;99.90;;;;;;5093494;28;20504;-70
2022/11/20 05:22:32;;;;;;;24.05;13.25;;;-0.10;99.90;;;;;;5076824;28;20041;-70
2022/11/20 05:24:58;;;;;;;21.15;12.93;;;-0.10;99.90;;;;;;5085708;28;20059;-71
2022/11/20 05:27:23;;;;;;;21.45;12.60;;;0.00;99.90;;;;;;5089098;28;20043;-70
2022/11/20 05:29:49;;;;;;;23.05;12.68;;;-0.10;99.90;;;;;;5080698;28;20097;-70
2022/11/20 05:32:14;;;;;;;23.83;13.15;;;-0.10;99.90;;;;;;5085362;28;20478;-69
2022/11/20 05:34:40;;;;;;;20.70;12.25;;;-0.10;99.90;;;;;;5085480;28;20493;-70
2022/11/20 05:37:05;;;;;;;24.02;12.70;;;0.00;99.90;;;;;;5086828;28;20040;-69
2022/11/20 05:39:31;;;;;;;21.27;12.30;;;0.00;99.90;;;;;;5088412;28;20108;-70
2022/11/20 05:44:40;;;;;;;24.13;12.77;;;0.10;99.90;;;;;;5089002;28;20516;-70
2022/11/20 05:47:06;;;;;;;22.20;12.90;;;0.00;99.90;;;;;;5078180;28;20032;-70
2022/11/20 05:49:32;;;;;;;25.55;13.18;;;0.00;99.90;;;;;;5083719;28;20073;-70
2022/11/20 05:51:57;;;;;;;22.10;12.50;;;0.10;99.90;;;;;;5089526;28;20036;-69
2022/11/20 05:54:23;;;;;;;24.88;12.68;;;0.00;99.90;;;;;;5080719;28;20406;-69
2022/11/20 05:56:49;;;;;;;22.77;12.45;;;0.10;99.90;;;;;;5088485;28;20054;-69
2022/11/20 05:59:14;;;;;;;24.25;11.82;;;0.00;99.90;;;;;;5081612;28;20185;-70
2022/11/20 06:01:40;;;;;;;22.60;12.77;;;0.10;99.90;;;;;;5087514;28;20069;-70
2022/11/20 06:04:06;;;;;;;21.65;12.15;;;0.10;99.90;;;;;;5084145;28;20127;-70
2022/11/20 06:06:31;;;;;;;19.65;12.02;;;0.10;99.90;;;;;;5083004;28;20178;-70
2022/11/20 06:08:58;;;;;;;22.23;12.23;;;0.00;99.90;;;;;;5089519;28;20174;-70
2022/11/20 06:11:24;;;;;;;22.10;12.77;;;0.10;99.90;;;;;;5083355;28;20102;-69
2022/11/20 06:13:50;;;;;;;22.10;12.98;;;0.10;99.90;;;;;;5080118;28;20532;-70
2022/11/20 06:16:18;;;;;;;20.95;12.57;;;0.10;99.90;;;;;;5080734;28;20063;-70
2022/11/20 06:18:44;;;;;;;21.50;12.73;;;0.10;99.90;;;;;;5082661;28;20036;-69
2022/11/20 06:21:13;;;;;;;23.33;12.40;;;0.20;99.90;;;;;;5086747;28;20039;-70
2022/11/20 06:23:39;;;;;;;20.95;12.20;;;0.20;99.90;;;;;;5088860;28;20112;-70
2022/11/20 06:26:09;;;;;;;22.77;12.88;;;0.10;99.90;;;;;;5087179;28;20036;-70
2022/11/20 06:28:35;;;;;;;19.58;11.80;;;0.20;99.90;;;;;;5081269;28;20086;-70
2022/11/20 06:31:01;;;;;;;22.42;12.65;;;0.20;99.90;;;;;;5082737;28;20039;-70
2022/11/20 06:33:27;;;;;;;24.08;12.82;;;0.20;99.90;;;;;;5084539;28;20036;-69
2022/11/20 06:35:57;;;;;;;26.00;13.60;;;0.20;99.90;;;;;;5087689;28;20477;-69
2022/11/20 06:38:22;;;;;;;21.15;12.48;;;0.20;99.90;;;;;;5087795;28;20671;-70
2022/11/20 06:40:48;;;;;;;21.75;12.38;;;0.30;99.90;;;;;;5090792;28;20089;-69
2022/11/20 06:43:13;;;;;;;19.48;11.27;;;0.30;99.90;;;;;;5074787;28;20040;-69
2022/11/20 06:45:39;;;;;;;20.13;12.00;;;0.30;99.90;;;;;;5088854;28;20035;-69
2022/11/20 06:48:05;;;;;;;19.92;11.88;;;0.30;99.90;;;;;;5088554;28;20093;-70
2022/11/20 06:50:30;;;;;;;20.88;12.30;;;0.30;99.90;;;;;;5086416;28;20127;-70
2022/11/20 06:52:56;;;;;;;18.98;11.82;;;0.20;99.90;;;;;;5090653;28;20032;-69
2022/11/20 06:55:21;;;;;;;22.70;11.95;;;0.20;99.90;;;;;;5091049;28;20043;-70
2022/11/20 06:57:47;;;;;;;19.77;12.43;;;0.20;99.90;;;;;;5092307;28;20031;-70
2022/11/20 07:00:13;;;;;;;23.17;12.65;;;0.20;99.90;;;;;;5082948;28;20055;-70
2022/11/20 07:02:39;;;;;;;23.60;11.93;;;0.20;99.90;;;;;;5090300;28;20485;-70
2022/11/20 07:05:04;;;;;;;21.17;12.15;;;0.20;99.90;;;;;;5088079;28;20039;-70
2022/11/20 07:07:30;;;;;;;22.95;12.10;;;0.20;99.90;;;;;;5081924;28;20039;-70
2022/11/20 07:09:55;;;;;;;16.75;10.82;;;0.20;99.90;;;;;;5087629;28;20048;-70
2022/11/20 07:12:21;;;;;;;19.45;11.18;;;0.20;99.90;;;;;;5088763;28;20036;-70
2022/11/20 07:14:47;;;;;;;19.38;10.93;;;0.20;99.90;;;;;;5086683;28;20094;-70
2022/11/20 07:17:12;;;;;;;20.63;12.27;;;0.20;99.90;;;;;;5082907;28;20113;-70
2022/11/20 07:19:38;;;;;;;21.67;11.82;;;0.30;99.90;;;;;;5079642;28;20070;-70
2022/11/20 07:22:04;;;;;;;21.17;12.05;;;0.30;99.90;;;;;;5082236;28;20516;-69
2022/11/20 07:24:30;;;;;;;20.23;12.20;;;0.30;99.90;;;;;;5080288;28;20489;-70
2022/11/20 07:26:55;;;;;;;20.42;12.95;;;0.30;99.90;;;;;;5085694;28;20090;-71
2022/11/20 07:29:21;;;;;;;19.30;11.32;;;0.30;99.90;;;;;;5083566;28;20043;-71
2022/11/20 07:31:46;;;;;;;21.02;11.88;;;0.30;99.90;;;;;;5088266;28;20025;-71
2022/11/20 07:34:12;;;;;;;20.92;11.95;;;0.30;99.90;;;;;;5089175;28;20132;-70
2022/11/20 07:36:37;;;;;;;20.80;11.95;;;0.30;99.90;;;;;;5086558;28;20132;-71
2022/11/20 07:39:03;;;;;;;20.17;11.77;;;0.30;99.90;;;;;;5084375;28;20023;-71
2022/11/20 07:41:28;;;;;;;20.63;11.57;;;0.30;99.90;;;;;;5087550;28;20028;-71
2022/11/20 07:43:54;;;;;;;20.20;11.20;;;0.30;99.90;;;;;;5081713;28;20101;-71
2022/11/20 07:46:20;;;;;;;23.48;11.50;;;0.30;99.90;;;;;;5086809;28;20085;-70
2022/11/20 07:48:45;;;;;;;27.42;13.32;;;0.30;99.90;;;;;;5083960;28;20032;-71
2022/11/20 07:51:11;;;;;;;22.15;11.90;;;0.30;99.90;;;;;;5082125;28;20585;-70
2022/11/20 07:53:36;;;;;;;20.23;11.60;;;0.40;99.90;;;;;;5084310;28;20067;-70
2022/11/20 07:56:03;;;;;;;21.90;12.27;;;0.40;99.90;;;;;;5085682;28;20037;-71
2022/11/20 07:58:32;;;;;;;17.25;11.65;;;0.40;99.90;;;;;;5087834;28;20048;-71
2022/11/20 08:01:02;;;;;;;18.67;11.23;;;0.40;99.90;;;;;;5090310;28;20036;-71
2022/11/20 08:03:28;;;;;;;18.05;10.43;;;0.40;99.90;;;;;;5080873;28;20040;-71
2022/11/20 08:05:54;;;;;;;21.48;11.90;;;0.40;99.90;;;;;;5076973;28;20389;-70
2022/11/20 08:08:20;;;;;;;20.42;12.55;;;0.40;99.90;;;;;;5082367;28;20084;-71
2022/11/20 08:10:45;;;;;;;19.95;11.80;;;0.50;99.90;;;;;;5087447;28;20032;-71
2022/11/20 08:15:55;;;;;;;21.75;12.18;;;0.50;99.90;;;;;;5086120;28;20040;-71
2022/11/20 08:18:20;;;;;;;21.55;12.23;;;0.50;99.90;;;;;;5083420;28;20379;-70
2022/11/20 08:20:46;;;;;;;21.77;12.23;;;0.50;99.90;;;;;;5087850;28;20409;-71
2022/11/20 08:23:12;;;;;;;19.08;12.20;;;0.50;99.90;;;;;;5083282;28;20559;-71
2022/11/20 08:25:38;;;;;;;22.35;12.25;;;0.50;99.90;;;;;;5083934;28;20036;-70
2022/11/20 08:28:06;;;;;;;20.40;12.20;;;0.50;99.90;;;;;;5084201;28;20394;-71
2022/11/20 08:30:32;;;;;;;26.27;12.95;;;0.50;99.90;;;;;;5088741;28;20115;-71
2022/11/20 08:33:03;;;;;;;20.40;11.70;;;0.50;99.90;;;;;;5079101;28;20497;-70
2022/11/20 08:35:33;;;;;;;21.10;12.77;;;0.50;99.90;;;;;;5084829;28;20051;-71
2022/11/20 08:37:59;;;;;;;24.50;14.15;;;0.50;99.90;;;;;;5083935;28;20044;-71
2022/11/20 08:40:24;;;;;;;23.92;12.90;;;0.50;99.90;;;;;;5085775;28;20051;-71
2022/11/20 08:42:51;;;;;;;20.40;11.60;;;0.50;99.90;;;;;;5084155;28;20084;-71
2022/11/20 08:45:18;;;;;;;20.48;12.82;;;0.50;99.90;;;;;;5083747;28;20114;-71
2022/11/20 08:47:44;;;;;;;20.15;12.38;;;0.60;99.90;;;;;;5081279;28;20040;-71
2022/11/20 08:50:12;;;;;;;20.05;12.45;;;0.60;99.90;;;;;;5084313;28;20365;-70
2022/11/20 08:52:38;;;;;;;19.27;12.40;;;0.60;99.90;;;;;;5086619;28;20048;-70
2022/11/20 08:55:05;;;;;;;20.30;13.15;;;0.60;99.90;;;;;;5084800;28;20718;-71
2022/11/20 08:57:32;;;;;;;19.90;11.75;;;0.60;99.90;;;;;;5080463;28;20051;-69
2022/11/20 08:59:58;;;;;;;20.80;12.10;;;0.70;99.90;;;;;;5090405;28;20047;-70
2022/11/20 09:02:24;;;;;;;20.65;13.10;;;0.70;99.90;;;;;;5084738;28;20043;-70
2022/11/20 09:04:50;;;;;;;18.73;12.18;;;0.70;99.90;;;;;;5084378;28;20037;-70
2022/11/20 09:07:15;;;;;;;19.80;12.15;;;0.80;99.90;;;;;;5081225;28;20040;-70
2022/11/20 09:09:41;;;;;;;19.85;12.88;;;0.80;99.90;;;;;;5080988;28;20107;-70
2022/11/20 09:12:06;;;;;;;21.30;11.93;;;0.80;99.90;;;;;;5088247;28;20448;-70
2022/11/20 09:14:32;;;;;;;18.40;11.80;;;0.80;99.90;;;;;;5091556;28;20041;-70
2022/11/20 09:16:57;;;;;;;21.05;12.77;;;0.80;99.90;;;;;;5086543;28;20075;-70
2022/11/20 09:19:26;;;;;;;22.50;12.90;;;0.80;99.90;;;;;;5088554;28;20028;-70
2022/11/20 09:21:52;;;;;;;22.38;13.95;;;0.90;99.90;;;;;;5083139;28;20028;-70
2022/11/20 09:24:18;;;;;;;22.88;13.35;;;0.90;99.90;;;;;;5091843;28;20036;-69
2022/11/20 09:26:44;;;;;;;23.05;12.80;;;1.00;99.90;;;;;;5080388;28;20115;-70
2022/11/20 09:29:09;;;;;;;22.38;12.82;;;1.20;99.90;;;;;;5086201;28;20041;-70
2022/11/20 09:31:35;;;;;;;21.98;12.25;;;1.20;99.90;;;;;;5084564;28;20047;-70
2022/11/20 09:34:00;;;;;;;21.20;12.52;;;1.30;99.90;;;;;;5082623;28;20397;-70
2022/11/20 09:36:26;;;;;;;22.52;13.95;;;1.30;99.90;;;;;;5086326;28;20041;-69
2022/11/20 09:38:52;;;;;;;22.77;13.63;;;1.20;99.90;;;;;;5085401;28;20089;-69
2022/11/20 09:41:38;;;;;;;23.40;13.23;;;1.20;99.90;;;;;;5093475;28;20047;-69
2022/11/20 09:44:10;;;;;;;24.20;12.93;;;1.20;99.90;;;;;;5085993;28;20036;-69
2022/11/20 09:46:47;;;;;;;20.92;12.25;;;1.20;99.90;;;;;;5083376;28;20501;-69
2022/11/20 09:49:50;;;;;;;22.88;13.10;;;1.20;99.90;;;;;;5079422;28;20037;-69
2022/11/20 09:52:40;;;;;;;20.25;12.05;;;1.30;99.90;;;;;;5082220;28;20456;-69
2022/11/20 09:55:11;;;;;;;20.27;12.10;;;1.40;99.90;;;;;;5086396;28;20138;-69
2022/11/20 09:57:41;;;;;;;20.08;12.05;;;1.40;99.90;;;;;;5091104;28;20333;-69
2022/11/20 10:00:11;;;;;;;20.80;11.90;;;1.40;99.90;;;;;;5088100;28;20085;-69
2022/11/20 10:02:58;;;;;;;20.85;12.05;;;1.50;99.90;;;;;;5079742;28;20045;-69
2022/11/20 10:06:06;;;;;;;20.52;11.93;;;1.60;99.90;;;;;;5109187;22;20415;-65
2022/11/20 10:08:41;;;;;;;20.17;12.55;;;1.70;99.90;;;;;;5057162;28;20074;-64
2022/11/20 10:11:32;;;;;;;20.40;12.43;;;1.90;99.90;;;;;;5106738;28;20107;-62
2022/11/20 10:14:00;;;;;;;20.33;11.35;;;2.10;99.90;;;;;;5109299;27;20039;-62
2022/11/20 10:16:42;;;;;;;20.00;12.23;;;2.20;99.90;;;;;;5094527;28;20459;-64
2022/11/20 10:19:19;;;;;;;21.80;13.00;;;2.20;99.90;;;;;;5082567;28;20114;-64
2022/11/20 10:21:57;;;;;;;20.50;12.65;;;2.30;99.90;;;;;;5075234;28;20825;-64
2022/11/20 10:24:46;;;;;;;20.55;12.20;;;2.40;99.90;;;;;;5084222;28;20118;-63
2022/11/20 10:27:29;;;;;;;19.27;12.25;;;2.40;99.90;;;;;;5088140;28;20485;-64
2022/11/20 10:30:06;;;;;;;18.90;10.85;;;2.50;99.90;;;;;;5083363;28;20182;-64
2022/11/20 10:32:41;;;;;;;19.20;10.23;;;2.50;99.90;;;;;;5091782;28;20127;-63
2022/11/20 10:35:31;;;;;;;17.77;9.93;;;2.60;99.90;;;;;;5080019;28;20171;-63
2022/11/20 10:38:06;;;;;;;16.73;10.60;;;2.60;99.90;;;;;;5081913;28;20044;-63
2022/11/20 10:40:38;;;;;;;17.10;10.43;;;2.50;99.90;;;;;;5083894;28;20569;-64
2022/11/20 10:43:12;;;;;;;16.60;10.45;;;2.50;99.90;;;;;;5104457;28;20069;-63
2022/11/20 10:45:58;;;;;;;16.20;10.63;;;2.40;99.90;;;;;;5096557;28;20396;-64
2022/11/20 10:48:26;;;;;;;15.50;9.52;;;2.40;99.90;;;;;;5095600;28;20032;-64
2022/11/20 10:50:57;;;;;;;17.27;9.88;;;2.40;99.90;;;;;;5084840;28;20044;-63
2022/11/20 10:53:51;;;;;;;16.73;10.10;;;2.40;99.90;;;;;;5083561;28;20039;-63
2022/11/20 10:56:24;;;;;;;15.90;10.07;;;2.50;99.90;;;;;;5085432;28;20063;-63
2022/11/20 10:59:19;;;;;;;17.02;10.85;;;2.40;99.90;;;;;;5096238;28;20043;-63
2022/11/20 11:01:44;;;;;;;15.23;10.02;;;2.40;99.90;;;;;;5090555;28;20036;-63
2022/11/20 11:04:28;;;;;;;15.38;10.23;;;2.40;99.90;;;;;;5093849;28;20044;-64
2022/11/20 11:07:17;;;;;;;16.73;9.98;;;2.40;99.90;;;;;;5086471;28;20048;-63
2022/11/20 11:09:56;;;;;;;18.65;9.95;;;2.40;99.90;;;;;;5081511;28;20493;-63
2022/11/20 11:12:25;;;;;;;17.92;10.40;;;2.40;99.90;;;;;;5089419;28;20512;-63
2022/11/20 11:14:53;;;;;;;16.13;9.80;;;2.50;99.90;;;;;;5078723;28;20039;-63
2022/11/20 11:17:30;;;;;;;16.75;10.63;;;2.50;99.90;;;;;;5099701;28;20036;-63
2022/11/20 11:20:11;;;;;;;16.05;10.15;;;2.60;99.90;;;;;;5077201;28;20390;-63
2022/11/20 11:22:50;;;;;;;16.38;10.70;;;2.60;99.90;;;;;;5086857;28;20144;-63
2022/11/20 11:25:19;;;;;;;18.13;10.38;;;2.60;99.90;;;;;;5080557;28;20686;-63
2022/11/20 11:27:47;;;;;;;15.65;10.05;;;2.70;99.90;;;;;;5086978;28;20077;-63
2022/11/20 11:30:15;;;;;;;15.70;10.85;;;2.70;99.90;;;;;;5076651;28;20044;-61
2022/11/20 11:32:41;;;;;;;18.52;11.25;;;2.80;99.90;;;;;;5080677;28;20032;-63
2022/11/20 11:35:23;;;;;;;15.98;10.20;;;2.80;99.90;;;;;;5084622;28;20035;-62
2022/11/20 11:37:48;;;;;;;;;;;2.90;99.90;;;;;;5090481;28;20500;-63
2022/11/20 11:40:17;;;;;;;15.77;10.13;;;2.80;99.90;;;;;;5089099;27;19923;-63
2022/11/20 11:42:46;;;;;;;14.80;9.32;;;2.80;99.90;;;;;;5099055;28;20036;-62
2022/11/20 11:45:17;;;;;;;16.50;10.60;;;2.90;99.90;;;;;;5084035;28;20032;-63
2022/11/20 11:47:43;;;;;;;;;;;2.90;99.90;;;;;;5099916;28;20040;-62
2022/11/20 11:50:08;;;;;;;16.67;9.80;;;2.90;99.90;;;;;;5103614;28;20019;-62
2022/11/20 11:52:48;;;;;;;13.48;9.00;;;3.00;99.90;;;;;;5091232;28;20051;-63
2022/11/20 11:55:28;;;;;;;13.32;8.60;;;3.00;99.90;;;;;;5089403;28;20089;-63
2022/11/20 11:58:32;;;;;;;14.65;9.60;;;3.00;99.90;;;;;;5081158;28;20063;-63
2022/11/20 12:01:07;;;;;;;15.00;8.88;;;3.10;99.90;;;;;;5082827;28;20028;-62
2022/11/20 12:03:37;;;;;;;18.85;9.88;;;3.20;99.90;;;;;;5087642;28;20527;-62
2022/11/20 12:06:18;;;;;;;14.07;9.27;;;3.30;99.90;;;;;;5091775;28;20031;-62
2022/11/20 12:08:55;;;;;;;15.73;9.60;;;3.50;99.90;;;;;;5092835;28;20392;-63
2022/11/20 12:11:45;;;;;;;14.30;8.52;;;3.60;99.90;;;;;;5099066;28;20110;-62
2022/11/20 12:14:31;;;;;;;17.13;8.77;;;3.70;99.90;;;;;;5096230;28;20036;-62
2022/11/20 12:16:57;;;;;;;13.57;9.15;;;3.80;99.90;;;;;;5080854;28;20055;-63
2022/11/20 12:19:23;;;;;;;14.50;9.07;;;3.80;99.90;;;;;;5092885;28;20511;-62
2022/11/20 12:22:22;;;;;;;14.90;8.65;;;3.80;99.90;;;;;;5086979;28;20039;-63
2022/11/20 12:25:07;;;;;;;13.60;8.50;;;3.80;99.90;;;;;;5088824;28;20036;-63
2022/11/20 12:27:45;;;;;;;13.77;9.48;;;3.80;99.90;;;;;;5086211;28;20036;-63
2022/11/20 12:30:14;;;;;;;15.20;9.63;;;3.80;99.90;;;;;;5099722;28;20128;-63
2022/11/20 12:33:22;;;;;;;15.32;8.82;;;3.70;99.90;;;;;;5074910;28;20027;-63
2022/11/20 12:36:09;;;;;;;14.85;9.10;;;3.60;99.90;;;;;;5090919;28;20496;-63
2022/11/20 12:38:57;;;;;;;14.48;9.38;;;3.50;99.90;;;;;;5084121;28;20085;-62
2022/11/20 12:45:09;;;;;;;16.08;9.85;;;3.40;99.90;;;;;;5091793;28;20481;-62
2022/11/20 12:48:02;;;;;;;16.83;9.55;;;3.40;99.90;;;;;;5080952;28;20045;-62
2022/11/20 12:50:52;;;;;;;14.40;9.30;;;3.30;99.90;;;;;;5093789;28;20066;-62
2022/11/20 12:53:32;;;;;;;17.20;9.85;;;3.30;99.90;;;;;;5089357;28;20413;-62
2022/11/20 12:56:19;;;;;;;16.65;9.25;;;3.30;99.90;;;;;;5080798;28;20062;-62
2022/11/20 12:58:50;;;;;;;15.93;10.10;;;3.20;99.90;;;;;;5081158;28;20049;-62
2022/11/20 13:01:39;;;;;;;14.85;9.60;;;3.30;99.90;;;;;;5078952;28;20076;-61